Terminal Aerodrome Forecast
Issued by NWS Wilmington, OH

Current Version | Previous Version | Graphics & Text | Print | Product List | Glossary Off
Versions: 1 2 3 4 5 6 7 8 9 10 11 12 13 14 15 16 17 18 19 20 21 22 23 24 25

000
FTUS41 KILN 252300
TAFILN
TAF
KILN 252339Z 2600/2624 23006KT P6SM BKN100
     FM260600 19005KT P6SM SCT070 SCT250
     FM261600 22010KT P6SM SCT025 SCT060 BKN250
     FM262000 23009KT P6SM VCSH SCT030 BKN250=

USA.gov is the U.S. government's official web portal to all federal, state and local government web resources and services.